Terminal Aerodrome Forecast
Issued by NWS

Home | Current Version | Previous Version | Text Only | Print | Product List | Glossary On
Versions: 1 2 3 4 5 6 7 8 9 10 11 12 13 14 15
000
FTUS44 KJAN 271720
TAFHKS
TAF
KHKS 271720Z 2718/2818 05007KT P6SM SCT050
     FM272000 06006KT P6SM VCTS FEW025 SCT050CB
     FM280000 04005KT P6SM BKN100
     FM281400 02008KT P6SM OVC015=

USA.gov is the U.S. government's official web portal to all federal, state and local government web resources and services.